sensor_id;sensor_type;location;lat;lon;timestamp;P1;durP1;ratioP1;P2;durP2;ratioP2
42196;SDS011;27866;48.146;17.098;2022-08-01T00:00:08;3.83;;;2.55;;
42196;SDS011;27866;48.146;17.098;2022-08-01T00:04:19;5.22;;;3.03;;
42196;SDS011;27866;48.146;17.098;2022-08-01T00:08:31;4.03;;;2.92;;
42196;SDS011;27866;48.146;17.098;2022-08-01T00:12:43;5.22;;;2.97;;
42196;SDS011;27866;48.146;17.098;2022-08-01T00:16:55;4.13;;;2.65;;
42196;SDS011;27866;48.146;17.098;2022-08-01T00:21:06;4.30;;;2.92;;
42196;SDS011;27866;48.146;17.098;2022-08-01T00:25:17;3.88;;;2.60;;
42196;SDS011;27866;48.146;17.098;2022-08-01T00:29:28;3.78;;;2.65;;
42196;SDS011;27866;48.146;17.098;2022-08-01T00:33:40;3.78;;;3.03;;
42196;SDS011;27866;48.146;17.098;2022-08-01T00:37:51;6.32;;;3.05;;
42196;SDS011;27866;48.146;17.098;2022-08-01T00:42:06;3.97;;;2.95;;
42196;SDS011;27866;48.146;17.098;2022-08-01T00:46:18;3.97;;;3.08;;
42196;SDS011;27866;48.146;17.098;2022-08-01T00:50:30;4.38;;;2.83;;
42196;SDS011;27866;48.146;17.098;2022-08-01T00:54:41;4.53;;;3.00;;
42196;SDS011;27866;48.146;17.098;2022-08-01T00:58:54;4.57;;;2.97;;
42196;SDS011;27866;48.146;17.098;2022-08-01T01:03:05;7.82;;;2.72;;
42196;SDS011;27866;48.146;17.098;2022-08-01T01:16:32;3.53;;;2.90;;
42196;SDS011;27866;48.146;17.098;2022-08-01T01:20:44;4.95;;;2.90;;
42196;SDS011;27866;48.146;17.098;2022-08-01T01:29:48;3.60;;;2.92;;
42196;SDS011;27866;48.146;17.098;2022-08-01T01:34:02;5.35;;;2.83;;
42196;SDS011;27866;48.146;17.098;2022-08-01T01:38:17;6.90;;;2.88;;
42196;SDS011;27866;48.146;17.098;2022-08-01T01:42:32;4.40;;;3.00;;
42196;SDS011;27866;48.146;17.098;2022-08-01T01:46:44;4.20;;;2.92;;
42196;SDS011;27866;48.146;17.098;2022-08-01T01:50:56;3.65;;;2.70;;
42196;SDS011;27866;48.146;17.098;2022-08-01T01:55:07;5.22;;;2.67;;
42196;SDS011;27866;48.146;17.098;2022-08-01T01:59:20;6.72;;;2.70;;
42196;SDS011;27866;48.146;17.098;2022-08-01T02:03:33;5.70;;;2.92;;
42196;SDS011;27866;48.146;17.098;2022-08-01T02:07:47;3.80;;;3.03;;
42196;SDS011;27866;48.146;17.098;2022-08-01T02:11:59;5.22;;;3.15;;
42196;SDS011;27866;48.146;17.098;2022-08-01T02:16:12;5.05;;;3.10;;
42196;SDS011;27866;48.146;17.098;2022-08-01T02:20:24;4.43;;;2.58;;
42196;SDS011;27866;48.146;17.098;2022-08-01T02:29:16;6.10;;;2.67;;
42196;SDS011;27866;48.146;17.098;2022-08-01T02:33:37;5.65;;;3.03;;
42196;SDS011;27866;48.146;17.098;2022-08-01T02:37:49;6.63;;;2.63;;
42196;SDS011;27866;48.146;17.098;2022-08-01T02:42:02;4.97;;;2.60;;
42196;SDS011;27866;48.146;17.098;2022-08-01T02:46:18;3.72;;;2.67;;
42196;SDS011;27866;48.146;17.098;2022-08-01T02:50:37;3.85;;;2.70;;
42196;SDS011;27866;48.146;17.098;2022-08-01T02:54:49;3.33;;;2.40;;
42196;SDS011;27866;48.146;17.098;2022-08-01T03:03:18;4.07;;;2.75;;
42196;SDS011;27866;48.146;17.098;2022-08-01T03:07:33;5.35;;;2.78;;
42196;SDS011;27866;48.146;17.098;2022-08-01T03:11:45;3.58;;;2.65;;
42196;SDS011;27866;48.146;17.098;2022-08-01T03:15:57;4.28;;;2.67;;
42196;SDS011;27866;48.146;17.098;2022-08-01T03:20:10;5.35;;;3.30;;
42196;SDS011;27866;48.146;17.098;2022-08-01T03:24:24;5.88;;;3.20;;
42196;SDS011;27866;48.146;17.098;2022-08-01T03:28:37;3.55;;;2.75;;
42196;SDS011;27866;48.146;17.098;2022-08-01T03:32:49;5.15;;;2.92;;
42196;SDS011;27866;48.146;17.098;2022-08-01T03:37:03;6.72;;;2.95;;
42196;SDS011;27866;48.146;17.098;2022-08-01T03:41:18;4.72;;;2.90;;
42196;SDS011;27866;48.146;17.098;2022-08-01T03:45:35;4.90;;;3.05;;
42196;SDS011;27866;48.146;17.098;2022-08-01T03:49:49;3.47;;;2.83;;
42196;SDS011;27866;48.146;17.098;2022-08-01T03:54:02;3.70;;;2.63;;
42196;SDS011;27866;48.146;17.098;2022-08-01T03:58:15;5.22;;;3.38;;
42196;SDS011;27866;48.146;17.098;2022-08-01T04:02:27;6.90;;;2.90;;
42196;SDS011;27866;48.146;17.098;2022-08-01T04:06:39;4.57;;;3.08;;
42196;SDS011;27866;48.146;17.098;2022-08-01T04:10:51;5.72;;;2.83;;
42196;SDS011;27866;48.146;17.098;2022-08-01T04:15:03;6.47;;;2.67;;
42196;SDS011;27866;48.146;17.098;2022-08-01T04:19:14;7.43;;;3.17;;
42196;SDS011;27866;48.146;17.098;2022-08-01T04:23:26;8.25;;;3.25;;
42196;SDS011;27866;48.146;17.098;2022-08-01T04:27:38;5.63;;;3.00;;
42196;SDS011;27866;48.146;17.098;2022-08-01T04:31:54;6.63;;;3.42;;
42196;SDS011;27866;48.146;17.098;2022-08-01T04:36:07;7.32;;;3.47;;
42196;SDS011;27866;48.146;17.098;2022-08-01T04:40:20;6.00;;;3.20;;
42196;SDS011;27866;48.146;17.098;2022-08-01T04:44:32;7.63;;;3.67;;
42196;SDS011;27866;48.146;17.098;2022-08-01T04:48:44;5.93;;;3.55;;
42196;SDS011;27866;48.146;17.098;2022-08-01T04:52:55;6.00;;;3.78;;
42196;SDS011;27866;48.146;17.098;2022-08-01T04:57:06;7.38;;;4.00;;
42196;SDS011;27866;48.146;17.098;2022-08-01T05:01:18;5.85;;;4.18;;
42196;SDS011;27866;48.146;17.098;2022-08-01T05:05:29;7.15;;;4.32;;
42196;SDS011;27866;48.146;17.098;2022-08-01T05:13:56;7.05;;;4.32;;
42196;SDS011;27866;48.146;17.098;2022-08-01T05:18:07;9.55;;;4.57;;
42196;SDS011;27866;48.146;17.098;2022-08-01T05:22:19;7.25;;;4.40;;
42196;SDS011;27866;48.146;17.098;2022-08-01T05:26:30;10.85;;;4.80;;
42196;SDS011;27866;48.146;17.098;2022-08-01T05:30:42;12.23;;;5.20;;
42196;SDS011;27866;48.146;17.098;2022-08-01T05:34:53;11.98;;;4.38;;
42196;SDS011;27866;48.146;17.098;2022-08-01T05:39:04;10.48;;;4.70;;
42196;SDS011;27866;48.146;17.098;2022-08-01T05:43:15;10.90;;;5.00;;
42196;SDS011;27866;48.146;17.098;2022-08-01T05:47:27;12.43;;;4.68;;
42196;SDS011;27866;48.146;17.098;2022-08-01T05:51:38;15.82;;;4.00;;
42196;SDS011;27866;48.146;17.098;2022-08-01T05:55:49;15.55;;;3.78;;
42196;SDS011;27866;48.146;17.098;2022-08-01T06:00:00;22.67;;;4.05;;
42196;SDS011;27866;48.146;17.098;2022-08-01T06:04:22;12.45;;;3.63;;
42196;SDS011;27866;48.146;17.098;2022-08-01T06:08:33;4.53;;;3.05;;
42196;SDS011;27866;48.146;17.098;2022-08-01T06:12:45;8.82;;;3.13;;
42196;SDS011;27866;48.146;17.098;2022-08-01T06:16:56;8.55;;;3.33;;
42196;SDS011;27866;48.146;17.098;2022-08-01T06:21:08;4.95;;;3.05;;
42196;SDS011;27866;48.146;17.098;2022-08-01T06:25:19;7.20;;;3.40;;
42196;SDS011;27866;48.146;17.098;2022-08-01T06:29:30;7.35;;;3.20;;
42196;SDS011;27866;48.146;17.098;2022-08-01T06:33:42;7.45;;;3.40;;
42196;SDS011;27866;48.146;17.098;2022-08-01T06:37:54;4.97;;;3.30;;
42196;SDS011;27866;48.146;17.098;2022-08-01T06:42:05;10.13;;;3.03;;
42196;SDS011;27866;48.146;17.098;2022-08-01T06:46:16;13.90;;;4.90;;
42196;SDS011;27866;48.146;17.098;2022-08-01T06:50:27;15.02;;;5.18;;
42196;SDS011;27866;48.146;17.098;2022-08-01T06:54:39;13.50;;;4.90;;
42196;SDS011;27866;48.146;17.098;2022-08-01T06:58:50;7.88;;;3.45;;
42196;SDS011;27866;48.146;17.098;2022-08-01T07:03:02;4.05;;;2.83;;
42196;SDS011;27866;48.146;17.098;2022-08-01T07:07:13;4.18;;;2.80;;
42196;SDS011;27866;48.146;17.098;2022-08-01T07:11:25;5.87;;;2.80;;
42196;SDS011;27866;48.146;17.098;2022-08-01T07:15:37;6.60;;;3.00;;
42196;SDS011;27866;48.146;17.098;2022-08-01T07:19:48;4.85;;;2.65;;
42196;SDS011;27866;48.146;17.098;2022-08-01T07:23:59;16.23;;;3.03;;
42196;SDS011;27866;48.146;17.098;2022-08-01T07:28:11;4.70;;;3.17;;
42196;SDS011;27866;48.146;17.098;2022-08-01T07:32:22;10.82;;;3.45;;
42196;SDS011;27866;48.146;17.098;2022-08-01T07:36:33;3.78;;;2.70;;
42196;SDS011;27866;48.146;17.098;2022-08-01T07:40:44;6.72;;;2.80;;
42196;SDS011;27866;48.146;17.098;2022-08-01T07:44:56;5.43;;;2.72;;
42196;SDS011;27866;48.146;17.098;2022-08-01T07:49:07;4.80;;;2.90;;
42196;SDS011;27866;48.146;17.098;2022-08-01T07:53:19;4.15;;;2.45;;
42196;SDS011;27866;48.146;17.098;2022-08-01T07:57:30;5.50;;;2.78;;
42196;SDS011;27866;48.146;17.098;2022-08-01T08:01:41;7.20;;;2.70;;
42196;SDS011;27866;48.146;17.098;2022-08-01T08:05:52;6.32;;;2.80;;
42196;SDS011;27866;48.146;17.098;2022-08-01T08:10:04;3.20;;;2.15;;
42196;SDS011;27866;48.146;17.098;2022-08-01T08:14:16;10.38;;;2.90;;
42196;SDS011;27866;48.146;17.098;2022-08-01T08:18:28;3.60;;;2.50;;
42196;SDS011;27866;48.146;17.098;2022-08-01T08:22:39;5.68;;;2.40;;
42196;SDS011;27866;48.146;17.098;2022-08-01T08:26:51;3.60;;;2.40;;
42196;SDS011;27866;48.146;17.098;2022-08-01T08:31:07;6.22;;;2.35;;
42196;SDS011;27866;48.146;17.098;2022-08-01T08:35:19;4.28;;;2.60;;
42196;SDS011;27866;48.146;17.098;2022-08-01T08:39:30;4.55;;;3.03;;
42196;SDS011;27866;48.146;17.098;2022-08-01T08:43:42;4.57;;;3.00;;
42196;SDS011;27866;48.146;17.098;2022-08-01T08:47:53;6.18;;;2.80;;
42196;SDS011;27866;48.146;17.098;2022-08-01T08:52:05;4.40;;;2.80;;
42196;SDS011;27866;48.146;17.098;2022-08-01T08:56:17;7.68;;;2.95;;
42196;SDS011;27866;48.146;17.098;2022-08-01T09:00:29;4.93;;;2.70;;
42196;SDS011;27866;48.146;17.098;2022-08-01T09:04:40;5.72;;;2.70;;
42196;SDS011;27866;48.146;17.098;2022-08-01T09:08:52;9.70;;;2.88;;
42196;SDS011;27866;48.146;17.098;2022-08-01T09:17:21;9.02;;;3.33;;
42196;SDS011;27866;48.146;17.098;2022-08-01T09:21:33;4.68;;;3.00;;
42196;SDS011;27866;48.146;17.098;2022-08-01T09:25:51;7.00;;;3.10;;
42196;SDS011;27866;48.146;17.098;2022-08-01T09:30:07;4.35;;;2.70;;
42196;SDS011;27866;48.146;17.098;2022-08-01T09:38:37;9.20;;;3.22;;
42196;SDS011;27866;48.146;17.098;2022-08-01T09:42:48;5.10;;;2.60;;
42196;SDS011;27866;48.146;17.098;2022-08-01T09:47:02;5.75;;;2.80;;
42196;SDS011;27866;48.146;17.098;2022-08-01T09:51:13;6.18;;;2.67;;
42196;SDS011;27866;48.146;17.098;2022-08-01T09:55:39;5.93;;;3.60;;
42196;SDS011;27866;48.146;17.098;2022-08-01T09:59:53;4.90;;;2.53;;
42196;SDS011;27866;48.146;17.098;2022-08-01T10:04:06;8.80;;;2.85;;
42196;SDS011;27866;48.146;17.098;2022-08-01T10:08:19;6.22;;;3.33;;
42196;SDS011;27866;48.146;17.098;2022-08-01T10:12:36;3.85;;;2.80;;
42196;SDS011;27866;48.146;17.098;2022-08-01T10:16:48;5.33;;;2.63;;
42196;SDS011;27866;48.146;17.098;2022-08-01T10:21:01;9.30;;;3.20;;
42196;SDS011;27866;48.146;17.098;2022-08-01T10:25:13;5.75;;;2.78;;
42196;SDS011;27866;48.146;17.098;2022-08-01T10:29:28;4.72;;;2.65;;
42196;SDS011;27866;48.146;17.098;2022-08-01T10:33:51;5.50;;;2.55;;
42196;SDS011;27866;48.146;17.098;2022-08-01T10:38:03;4.93;;;1.98;;
42196;SDS011;27866;48.146;17.098;2022-08-01T10:42:14;3.05;;;2.00;;
42196;SDS011;27866;48.146;17.098;2022-08-01T10:46:25;4.60;;;1.90;;
42196;SDS011;27866;48.146;17.098;2022-08-01T10:50:51;3.53;;;1.77;;
42196;SDS011;27866;48.146;17.098;2022-08-01T10:55:04;2.75;;;1.70;;
42196;SDS011;27866;48.146;17.098;2022-08-01T10:59:20;3.97;;;1.80;;
42196;SDS011;27866;48.146;17.098;2022-08-01T11:03:36;3.83;;;1.48;;
42196;SDS011;27866;48.146;17.098;2022-08-01T11:07:48;3.42;;;1.70;;
42196;SDS011;27866;48.146;17.098;2022-08-01T11:12:06;2.72;;;1.63;;
42196;SDS011;27866;48.146;17.098;2022-08-01T11:16:26;2.63;;;1.60;;
42196;SDS011;27866;48.146;17.098;2022-08-01T11:20:39;2.47;;;1.48;;
42196;SDS011;27866;48.146;17.098;2022-08-01T11:25:09;3.03;;;1.50;;
42196;SDS011;27866;48.146;17.098;2022-08-01T11:29:20;4.50;;;1.70;;
42196;SDS011;27866;48.146;17.098;2022-08-01T11:42:18;6.32;;;1.70;;
42196;SDS011;27866;48.146;17.098;2022-08-01T11:46:51;6.30;;;1.70;;
42196;SDS011;27866;48.146;17.098;2022-08-01T11:51:08;5.00;;;1.77;;
42196;SDS011;27866;48.146;17.098;2022-08-01T11:55:27;4.90;;;1.77;;
42196;SDS011;27866;48.146;17.098;2022-08-01T11:59:41;3.72;;;1.40;;
42196;SDS011;27866;48.146;17.098;2022-08-01T12:03:57;3.67;;;1.70;;
42196;SDS011;27866;48.146;17.098;2022-08-01T12:08:09;3.35;;;1.58;;
42196;SDS011;27866;48.146;17.098;2022-08-01T12:12:20;2.92;;;1.65;;
42196;SDS011;27866;48.146;17.098;2022-08-01T12:16:32;2.95;;;1.80;;
42196;SDS011;27866;48.146;17.098;2022-08-01T12:20:44;6.05;;;1.77;;
42196;SDS011;27866;48.146;17.098;2022-08-01T12:25:04;3.08;;;1.80;;
42196;SDS011;27866;48.146;17.098;2022-08-01T12:29:36;4.35;;;2.03;;
42196;SDS011;27866;48.146;17.098;2022-08-01T12:33:52;3.00;;;1.58;;
42196;SDS011;27866;48.146;17.098;2022-08-01T12:42:15;6.07;;;1.88;;
42196;SDS011;27866;48.146;17.098;2022-08-01T12:46:27;5.30;;;1.83;;
42196;SDS011;27866;48.146;17.098;2022-08-01T12:50:39;4.82;;;1.60;;
42196;SDS011;27866;48.146;17.098;2022-08-01T12:59:26;3.42;;;1.60;;
42196;SDS011;27866;48.146;17.098;2022-08-01T13:03:39;5.22;;;1.60;;
42196;SDS011;27866;48.146;17.098;2022-08-01T13:07:51;11.75;;;4.32;;
42196;SDS011;27866;48.146;17.098;2022-08-01T13:12:07;4.00;;;1.70;;
42196;SDS011;27866;48.146;17.098;2022-08-01T13:16:22;2.17;;;1.73;;
42196;SDS011;27866;48.146;17.098;2022-08-01T13:20:36;4.38;;;1.60;;
42196;SDS011;27866;48.146;17.098;2022-08-01T13:24:48;3.88;;;1.67;;
42196;SDS011;27866;48.146;17.098;2022-08-01T13:29:05;4.13;;;1.40;;
42196;SDS011;27866;48.146;17.098;2022-08-01T13:33:18;4.13;;;1.67;;
42196;SDS011;27866;48.146;17.098;2022-08-01T13:37:30;7.25;;;1.65;;
42196;SDS011;27866;48.146;17.098;2022-08-01T13:41:41;3.58;;;1.48;;
42196;SDS011;27866;48.146;17.098;2022-08-01T13:45:53;6.10;;;1.50;;
42196;SDS011;27866;48.146;17.098;2022-08-01T13:50:04;4.40;;;1.40;;
42196;SDS011;27866;48.146;17.098;2022-08-01T13:54:16;6.55;;;2.05;;
42196;SDS011;27866;48.146;17.098;2022-08-01T13:58:28;4.63;;;1.60;;
42196;SDS011;27866;48.146;17.098;2022-08-01T14:02:39;5.13;;;2.13;;
42196;SDS011;27866;48.146;17.098;2022-08-01T14:06:51;10.77;;;2.30;;
42196;SDS011;27866;48.146;17.098;2022-08-01T14:11:02;3.47;;;1.63;;
42196;SDS011;27866;48.146;17.098;2022-08-01T14:15:14;7.30;;;2.60;;
42196;SDS011;27866;48.146;17.098;2022-08-01T14:19:26;5.28;;;2.25;;
42196;SDS011;27866;48.146;17.098;2022-08-01T14:23:38;11.52;;;3.15;;
42196;SDS011;27866;48.146;17.098;2022-08-01T14:27:49;11.20;;;3.45;;
42196;SDS011;27866;48.146;17.098;2022-08-01T14:32:01;13.68;;;3.97;;
42196;SDS011;27866;48.146;17.098;2022-08-01T14:36:13;15.98;;;4.95;;
42196;SDS011;27866;48.146;17.098;2022-08-01T14:40:24;18.23;;;5.38;;
42196;SDS011;27866;48.146;17.098;2022-08-01T14:44:36;11.32;;;5.20;;
42196;SDS011;27866;48.146;17.098;2022-08-01T14:48:47;14.57;;;6.78;;
42196;SDS011;27866;48.146;17.098;2022-08-01T14:52:58;13.32;;;6.57;;
42196;SDS011;27866;48.146;17.098;2022-08-01T14:57:10;10.98;;;7.90;;
42196;SDS011;27866;48.146;17.098;2022-08-01T15:01:21;9.75;;;6.70;;
42196;SDS011;27866;48.146;17.098;2022-08-01T15:05:33;12.45;;;6.90;;
42196;SDS011;27866;48.146;17.098;2022-08-01T15:09:45;13.13;;;9.30;;
42196;SDS011;27866;48.146;17.098;2022-08-01T15:13:57;10.93;;;9.40;;
42196;SDS011;27866;48.146;17.098;2022-08-01T15:18:27;11.60;;;7.40;;
42196;SDS011;27866;48.146;17.098;2022-08-01T15:22:39;10.10;;;8.60;;
42196;SDS011;27866;48.146;17.098;2022-08-01T15:26:50;10.15;;;8.35;;
42196;SDS011;27866;48.146;17.098;2022-08-01T15:31:01;11.98;;;7.70;;
42196;SDS011;27866;48.146;17.098;2022-08-01T15:35:12;12.07;;;8.38;;
42196;SDS011;27866;48.146;17.098;2022-08-01T15:39:24;10.98;;;8.10;;
42196;SDS011;27866;48.146;17.098;2022-08-01T15:43:35;8.75;;;7.28;;
42196;SDS011;27866;48.146;17.098;2022-08-01T15:47:46;9.18;;;7.40;;
42196;SDS011;27866;48.146;17.098;2022-08-01T15:51:57;9.52;;;6.40;;
42196;SDS011;27866;48.146;17.098;2022-08-01T15:56:09;13.52;;;6.10;;
42196;SDS011;27866;48.146;17.098;2022-08-01T16:00:20;6.90;;;6.25;;
42196;SDS011;27866;48.146;17.098;2022-08-01T16:04:32;17.42;;;11.98;;
42196;SDS011;27866;48.146;17.098;2022-08-01T16:08:43;9.75;;;6.68;;
42196;SDS011;27866;48.146;17.098;2022-08-01T16:12:54;9.25;;;6.68;;
42196;SDS011;27866;48.146;17.098;2022-08-01T16:17:06;9.02;;;6.90;;
42196;SDS011;27866;48.146;17.098;2022-08-01T16:21:19;10.27;;;6.80;;
42196;SDS011;27866;48.146;17.098;2022-08-01T16:25:33;9.98;;;6.57;;
42196;SDS011;27866;48.146;17.098;2022-08-01T16:29:44;11.13;;;7.25;;
42196;SDS011;27866;48.146;17.098;2022-08-01T16:33:55;6.68;;;4.93;;
42196;SDS011;27866;48.146;17.098;2022-08-01T16:38:07;7.35;;;5.22;;
42196;SDS011;27866;48.146;17.098;2022-08-01T16:42:21;6.90;;;6.03;;
42196;SDS011;27866;48.146;17.098;2022-08-01T16:46:33;6.82;;;6.10;;
42196;SDS011;27866;48.146;17.098;2022-08-01T16:50:44;8.52;;;5.90;;
42196;SDS011;27866;48.146;17.098;2022-08-01T16:55:00;7.60;;;5.70;;
42196;SDS011;27866;48.146;17.098;2022-08-01T16:59:11;16.10;;;10.93;;
42196;SDS011;27866;48.146;17.098;2022-08-01T17:03:23;7.90;;;5.53;;
42196;SDS011;27866;48.146;17.098;2022-08-01T17:07:35;5.28;;;4.70;;
42196;SDS011;27866;48.146;17.098;2022-08-01T17:11:46;6.15;;;4.85;;
42196;SDS011;27866;48.146;17.098;2022-08-01T17:15:57;6.32;;;5.00;;
42196;SDS011;27866;48.146;17.098;2022-08-01T17:20:09;7.07;;;5.18;;
42196;SDS011;27866;48.146;17.098;2022-08-01T17:24:20;6.32;;;5.50;;
42196;SDS011;27866;48.146;17.098;2022-08-01T17:28:32;9.10;;;5.10;;
42196;SDS011;27866;48.146;17.098;2022-08-01T17:32:43;6.30;;;5.43;;
42196;SDS011;27866;48.146;17.098;2022-08-01T17:36:56;8.40;;;5.93;;
42196;SDS011;27866;48.146;17.098;2022-08-01T17:41:07;6.00;;;5.00;;
42196;SDS011;27866;48.146;17.098;2022-08-01T17:45:19;7.05;;;5.65;;
42196;SDS011;27866;48.146;17.098;2022-08-01T17:49:30;8.77;;;5.95;;
42196;SDS011;27866;48.146;17.098;2022-08-01T17:53:42;8.27;;;5.72;;
42196;SDS011;27866;48.146;17.098;2022-08-01T17:57:53;9.40;;;5.65;;
42196;SDS011;27866;48.146;17.098;2022-08-01T18:02:05;9.20;;;6.53;;
42196;SDS011;27866;48.146;17.098;2022-08-01T18:06:16;8.10;;;5.28;;
42196;SDS011;27866;48.146;17.098;2022-08-01T18:10:27;9.50;;;5.05;;
42196;SDS011;27866;48.146;17.098;2022-08-01T18:14:39;6.05;;;4.78;;
42196;SDS011;27866;48.146;17.098;2022-08-01T18:18:51;5.53;;;4.95;;
42196;SDS011;27866;48.146;17.098;2022-08-01T18:23:02;10.00;;;5.68;;
42196;SDS011;27866;48.146;17.098;2022-08-01T18:27:14;8.48;;;5.03;;
42196;SDS011;27866;48.146;17.098;2022-08-01T18:31:25;27.42;;;16.90;;
42196;SDS011;27866;48.146;17.098;2022-08-01T18:35:36;8.02;;;5.90;;
42196;SDS011;27866;48.146;17.098;2022-08-01T18:39:49;7.03;;;5.25;;
42196;SDS011;27866;48.146;17.098;2022-08-01T18:44:01;7.22;;;5.60;;
42196;SDS011;27866;48.146;17.098;2022-08-01T18:48:12;8.45;;;5.95;;
42196;SDS011;27866;48.146;17.098;2022-08-01T18:52:24;10.90;;;5.53;;
42196;SDS011;27866;48.146;17.098;2022-08-01T18:56:36;7.55;;;5.20;;
42196;SDS011;27866;48.146;17.098;2022-08-01T19:00:47;7.32;;;4.40;;
42196;SDS011;27866;48.146;17.098;2022-08-01T19:04:59;5.70;;;4.55;;
42196;SDS011;27866;48.146;17.098;2022-08-01T19:09:10;7.93;;;4.25;;
42196;SDS011;27866;48.146;17.098;2022-08-01T19:13:21;8.73;;;4.32;;
42196;SDS011;27866;48.146;17.098;2022-08-01T19:17:34;8.20;;;4.13;;
42196;SDS011;27866;48.146;17.098;2022-08-01T19:21:45;17.48;;;9.95;;
42196;SDS011;27866;48.146;17.098;2022-08-01T19:25:57;7.75;;;4.30;;
42196;SDS011;27866;48.146;17.098;2022-08-01T19:30:09;7.32;;;4.18;;
42196;SDS011;27866;48.146;17.098;2022-08-01T19:34:22;4.50;;;4.10;;
42196;SDS011;27866;48.146;17.098;2022-08-01T19:38:35;7.93;;;4.38;;
42196;SDS011;27866;48.146;17.098;2022-08-01T19:42:46;5.00;;;3.80;;
42196;SDS011;27866;48.146;17.098;2022-08-01T19:46:58;7.57;;;4.65;;
42196;SDS011;27866;48.146;17.098;2022-08-01T19:51:11;8.35;;;4.68;;
42196;SDS011;27866;48.146;17.098;2022-08-01T19:55:26;5.25;;;3.85;;
42196;SDS011;27866;48.146;17.098;2022-08-01T19:59:38;7.78;;;4.95;;
42196;SDS011;27866;48.146;17.098;2022-08-01T20:03:49;10.93;;;7.05;;
42196;SDS011;27866;48.146;17.098;2022-08-01T20:08:01;11.32;;;6.70;;
42196;SDS011;27866;48.146;17.098;2022-08-01T20:12:13;6.72;;;3.78;;
42196;SDS011;27866;48.146;17.098;2022-08-01T20:16:25;11.55;;;3.78;;
42196;SDS011;27866;48.146;17.098;2022-08-01T20:20:37;6.80;;;3.42;;
42196;SDS011;27866;48.146;17.098;2022-08-01T20:24:52;9.18;;;3.50;;
42196;SDS011;27866;48.146;17.098;2022-08-01T20:29:04;6.20;;;4.10;;
42196;SDS011;27866;48.146;17.098;2022-08-01T20:33:16;5.88;;;4.10;;
42196;SDS011;27866;48.146;17.098;2022-08-01T20:37:30;4.90;;;3.38;;
42196;SDS011;27866;48.146;17.098;2022-08-01T20:41:52;8.35;;;3.83;;
42196;SDS011;27866;48.146;17.098;2022-08-01T20:46:04;6.95;;;4.22;;
42196;SDS011;27866;48.146;17.098;2022-08-01T20:50:16;8.50;;;4.40;;
42196;SDS011;27866;48.146;17.098;2022-08-01T20:54:46;7.53;;;4.07;;
42196;SDS011;27866;48.146;17.098;2022-08-01T21:03:15;4.60;;;4.03;;
42196;SDS011;27866;48.146;17.098;2022-08-01T21:12:00;7.80;;;4.30;;
42196;SDS011;27866;48.146;17.098;2022-08-01T21:16:22;6.43;;;3.70;;
42196;SDS011;27866;48.146;17.098;2022-08-01T21:20:40;7.18;;;3.70;;
42196;SDS011;27866;48.146;17.098;2022-08-01T21:24:53;7.90;;;4.05;;
42196;SDS011;27866;48.146;17.098;2022-08-01T21:29:11;7.53;;;3.95;;
42196;SDS011;27866;48.146;17.098;2022-08-01T21:33:23;4.47;;;4.07;;
42196;SDS011;27866;48.146;17.098;2022-08-01T21:37:36;8.57;;;4.07;;
42196;SDS011;27866;48.146;17.098;2022-08-01T21:41:50;12.37;;;5.13;;
42196;SDS011;27866;48.146;17.098;2022-08-01T21:46:01;5.88;;;3.85;;
42196;SDS011;27866;48.146;17.098;2022-08-01T21:50:13;6.65;;;3.47;;
42196;SDS011;27866;48.146;17.098;2022-08-01T22:07:21;4.03;;;3.35;;
42196;SDS011;27866;48.146;17.098;2022-08-01T22:11:32;5.80;;;3.00;;
42196;SDS011;27866;48.146;17.098;2022-08-01T22:15:44;4.38;;;3.05;;
42196;SDS011;27866;48.146;17.098;2022-08-01T22:19:55;6.38;;;3.40;;
42196;SDS011;27866;48.146;17.098;2022-08-01T22:24:07;4.78;;;3.33;;
42196;SDS011;27866;48.146;17.098;2022-08-01T22:28:18;5.00;;;3.03;;
42196;SDS011;27866;48.146;17.098;2022-08-01T22:32:31;5.45;;;3.10;;
42196;SDS011;27866;48.146;17.098;2022-08-01T22:36:49;4.03;;;3.10;;
42196;SDS011;27866;48.146;17.098;2022-08-01T22:41:04;6.18;;;3.10;;
42196;SDS011;27866;48.146;17.098;2022-08-01T22:54:02;7.82;;;2.85;;
42196;SDS011;27866;48.146;17.098;2022-08-01T22:58:16;7.10;;;3.55;;
42196;SDS011;27866;48.146;17.098;2022-08-01T23:02:27;5.45;;;3.38;;
42196;SDS011;27866;48.146;17.098;2022-08-01T23:06:42;5.68;;;3.42;;
42196;SDS011;27866;48.146;17.098;2022-08-01T23:10:54;6.03;;;3.50;;
42196;SDS011;27866;48.146;17.098;2022-08-01T23:15:06;5.28;;;3.25;;
42196;SDS011;27866;48.146;17.098;2022-08-01T23:19:18;6.43;;;2.83;;
42196;SDS011;27866;48.146;17.098;2022-08-01T23:23:31;5.23;;;3.40;;
42196;SDS011;27866;48.146;17.098;2022-08-01T23:27:44;4.10;;;3.15;;
42196;SDS011;27866;48.146;17.098;2022-08-01T23:31:56;10.60;;;3.35;;
42196;SDS011;27866;48.146;17.098;2022-08-01T23:36:07;5.65;;;2.78;;
42196;SDS011;27866;48.146;17.098;2022-08-01T23:40:18;5.93;;;3.00;;
42196;SDS011;27866;48.146;17.098;2022-08-01T23:44:30;3.50;;;3.05;;
42196;SDS011;27866;48.146;17.098;2022-08-01T23:48:41;5.13;;;3.33;;
42196;SDS011;27866;48.146;17.098;2022-08-01T23:52:52;3.88;;;3.22;;
42196;SDS011;27866;48.146;17.098;2022-08-01T23:57:04;4.75;;;3.15;;
